Aérodrome :
LOGIN :

S'inscrire | Disclaimer

   EN    FR    IT 

 










Légende :    VFR   VFR Marginal   IFR   IFR Intensif   IFR Très Intensif
Visi : 
Plafond : 
>= 8 km
>= 3000ft
5 à 8 km
1000 à 3000 ft
1500m à 5 km
500 à 1000 ft
800 à 1500m
200 à 500 ft
< 800m
< 200 ft
Symboles :   Orages  Brouillard  Fortes neiges  Fortes précipitations  Vent > 20 kt
SIGMETs :   Divers  Orages  Givrage  Turbulence  Onde Orograph.  Cendres Volcan.







- Altitude de l'aérodrome : 287 ft
- Voir les cartes d'approche


LFRL - Lanveoc Poulmic

DERNIER METAR :
  • 200430Z AUTO 24005KT 9999 BKN004 BKN011 BKN016 17/16 Q1009

METARs EXPIRÉS :
  • 200400Z AUTO 26008KT 9999 OVC004 17/16 Q1009
  • 200330Z AUTO 27011KT 3700 BR OVC002 17/16 Q1009
  • 200300Z AUTO 25013KT 220V280 6000 OVC003/// ///CB 18/17 Q1009
  • 200230Z AUTO 21013KT 8000 -RA BKN003/// OVC009/// ///CB 18/17 Q1009
  • 200200Z AUTO 22014KT 5000 BR OVC002/// ///CB 18/17 Q1009

TAF TAF LFRL
Valide du 19 à 12h jusqu'au 20 à 12h UTC


191100Z 1912/2012 20015G25KT 7000 OVC003
TEMPO 1912/1918 3000 -RADZ BR
BECMG 1918/1921 1500 RA
PROB30
TEMPO 1921/2003 TSRA BKN008CB
BECMG 2006/2009 7000 NSW BKN011
Pas de NOTAMs connus pour ce terrain.



MET'MAP, la Météo Aéronautique d'un coup d'oeil ! - Copyright ORBIFLY Décembre 2007 - Disclaimer

ORBIFLY MET'MAP TEAM :

Programmation & Développement : Alexandra Zaïnal
Conception & Développement : Baudouin d'Aumeries
Co-Programmation & Développement : Marc-Olivier Méhu
Soutien technique & logistique : Manuel Goepfert

Contact : metmap@orbifly.com




SOURCES & CREDITS :

   NOAA